createdAt,value
2019-05-20T00:00:48.838Z,84.35
2019-05-20T00:01:48.861Z,84.76
2019-05-20T00:02:48.817Z,84.50
2019-05-20T00:03:48.809Z,83.78
2019-05-20T00:04:48.823Z,83.78
2019-05-20T00:05:48.798Z,83.89
2019-05-20T00:06:48.787Z,84.50
2019-05-20T00:07:48.758Z,83.98
2019-05-20T00:08:48.771Z,83.89
2019-05-20T00:09:48.741Z,83.78
2019-05-20T00:10:48.727Z,84.70
2019-05-20T00:11:48.737Z,84.70
2019-05-20T00:12:48.704Z,85.00
2019-05-20T00:13:48.693Z,84.50
2019-05-20T00:14:48.683Z,84.59
2019-05-20T00:15:48.739Z,84.25
2019-05-20T00:16:48.682Z,84.39
2019-05-20T00:17:48.698Z,83.37
2019-05-20T00:18:48.638Z,83.58
2019-05-20T00:19:50.750Z,84.70
2019-05-20T00:20:48.616Z,85.82
2019-05-20T00:21:48.620Z,85.51
2019-05-20T00:22:48.613Z,84.59
2019-05-20T00:23:48.594Z,84.90
2019-05-20T00:24:48.576Z,84.90
2019-05-20T00:25:48.562Z,84.70
2019-05-20T00:26:48.583Z,85.00
2019-05-20T00:27:48.542Z,84.74
2019-05-20T00:28:48.530Z,85.41
2019-05-20T00:29:48.517Z,85.31
2019-05-20T00:30:48.507Z,85.41
2019-05-20T00:31:48.509Z,85.61
2019-05-20T00:32:48.486Z,85.55
2019-05-20T00:33:48.537Z,85.11
2019-05-20T00:34:48.463Z,85.11
2019-05-20T00:35:48.448Z,85.92
2019-05-20T00:36:48.456Z,86.13
2019-05-20T00:37:48.432Z,86.02
2019-05-20T00:38:48.416Z,86.43
2019-05-20T00:39:48.407Z,86.22
2019-05-20T00:40:48.405Z,86.33
2019-05-20T00:41:48.403Z,85.82
2019-05-20T00:42:48.372Z,86.22
2019-05-20T00:43:48.362Z,85.82
2019-05-20T00:44:48.495Z,85.61
2019-05-20T00:45:48.340Z,85.61
2019-05-20T00:46:48.350Z,86.02
2019-05-20T00:47:48.319Z,85.98
2019-05-20T00:48:48.399Z,85.98
2019-05-20T00:49:48.298Z,86.19
2019-05-20T00:50:48.286Z,85.98
2019-05-20T00:51:48.296Z,86.19
2019-05-20T00:52:48.265Z,86.29
2019-05-20T00:53:48.252Z,85.98
2019-05-20T00:54:48.240Z,86.08
2019-05-20T00:55:48.240Z,86.08
2019-05-20T00:56:48.248Z,86.29
2019-05-20T00:57:48.208Z,86.19
2019-05-20T00:58:48.202Z,86.39
2019-05-20T00:59:48.293Z,86.19
2019-05-20T01:00:48.178Z,86.49
2019-05-20T01:01:48.206Z,85.78
2019-05-20T01:02:56.391Z,85.58
2019-05-20T01:03:48.146Z,85.88
2019-05-20T01:04:48.137Z,85.58
2019-05-20T01:05:48.131Z,84.82
2019-05-20T01:06:48.161Z,85.37
2019-05-20T01:07:48.108Z,85.33
2019-05-20T01:08:48.086Z,85.23
2019-05-20T01:09:48.086Z,85.43
2019-05-20T01:10:48.063Z,85.37
2019-05-20T01:11:48.052Z,85.37
2019-05-20T01:12:48.064Z,85.37
2019-05-20T01:13:48.040Z,85.23
2019-05-20T01:14:48.022Z,85.43
2019-05-20T01:15:48.009Z,85.74
2019-05-20T01:16:48.087Z,85.58
2019-05-20T01:17:48.006Z,85.58
2019-05-20T01:18:47.976Z,85.23
2019-05-20T01:19:47.974Z,85.17
2019-05-20T01:20:47.955Z,85.78
2019-05-20T01:21:47.945Z,85.84
2019-05-20T01:22:47.956Z,85.94
2019-05-20T01:23:47.923Z,85.74
2019-05-20T01:24:47.914Z,85.74
2019-05-20T01:25:47.916Z,85.94
2019-05-20T01:26:47.888Z,85.84
2019-05-20T01:27:47.961Z,86.15
2019-05-20T01:28:47.877Z,86.04
2019-05-20T01:29:47.861Z,86.04
2019-05-20T01:30:47.849Z,86.04
2019-05-20T01:31:47.833Z,86.25
2019-05-20T01:32:47.839Z,86.04
2019-05-20T01:33:47.813Z,86.04
2019-05-20T01:34:47.802Z,85.94
2019-05-20T01:35:47.792Z,86.04
2019-05-20T01:36:47.781Z,86.25
2019-05-20T01:37:47.796Z,86.76
2019-05-20T01:38:47.768Z,87.47
2019-05-20T01:39:47.760Z,87.16
2019-05-20T01:40:47.742Z,87.16
2019-05-20T01:41:47.725Z,87.16
2019-05-20T01:42:47.737Z,87.26
2019-05-20T01:43:47.700Z,87.26
2019-05-20T01:44:47.696Z,87.32
2019-05-20T01:45:47.687Z,87.16
2019-05-20T01:46:47.672Z,87.02
2019-05-20T01:47:47.684Z,86.55
2019-05-20T01:48:47.666Z,86.55
2019-05-20T01:49:47.637Z,86.10
2019-05-20T01:50:47.624Z,86.10
2019-05-20T01:51:47.626Z,86.21
2019-05-20T01:52:47.633Z,86.31
2019-05-20T01:53:47.589Z,86.51
2019-05-20T01:54:47.581Z,86.31
2019-05-20T01:55:47.568Z,87.12
2019-05-20T01:56:47.560Z,87.02
2019-05-20T01:57:47.562Z,86.92
2019-05-20T01:58:47.537Z,86.71
2019-05-20T01:59:47.524Z,87.02
2019-05-20T02:00:47.513Z,87.12
2019-05-20T02:01:47.504Z,87.12
2019-05-20T02:02:47.507Z,87.02
2019-05-20T02:03:47.484Z,86.71
2019-05-20T02:04:47.471Z,87.32
2019-05-20T02:05:47.492Z,87.32
2019-05-20T02:06:47.449Z,86.82
2019-05-20T02:07:47.453Z,87.38
2019-05-20T02:08:47.425Z,86.92
2019-05-20T02:09:47.421Z,86.92
2019-05-20T02:10:47.409Z,87.38
2019-05-20T02:11:47.392Z,86.41
2019-05-20T02:12:47.415Z,86.31
2019-05-20T02:13:47.371Z,85.86
2019-05-20T02:14:47.366Z,86.37
2019-05-20T02:15:47.397Z,86.27
2019-05-20T02:16:47.338Z,85.96
2019-05-20T02:17:47.343Z,86.16
2019-05-20T02:18:47.332Z,86.16
2019-05-20T02:19:47.303Z,86.27
2019-05-20T02:20:47.350Z,85.86
2019-05-20T02:21:47.279Z,85.96
2019-05-20T02:22:47.287Z,86.07
2019-05-20T02:23:47.263Z,86.47
2019-05-20T02:24:47.254Z,86.07
2019-05-20T02:25:47.255Z,85.92
2019-05-20T02:26:47.229Z,85.86
2019-05-20T02:27:47.231Z,86.37
2019-05-20T02:28:47.203Z,86.22
2019-05-20T02:29:47.203Z,86.22
2019-05-20T02:30:47.194Z,86.22
2019-05-20T02:31:47.178Z,86.43
2019-05-20T02:32:47.180Z,86.07
2019-05-20T02:33:52.222Z,86.13
2019-05-20T02:34:49.056Z,86.13
2019-05-20T02:35:47.127Z,86.13
2019-05-20T02:36:47.118Z,86.02
2019-05-20T02:37:47.135Z,86.02
2019-05-20T02:38:47.093Z,86.02
2019-05-20T02:39:47.086Z,86.22
2019-05-20T02:40:47.088Z,86.02
2019-05-20T02:41:47.122Z,85.92
2019-05-20T02:42:47.065Z,85.62
2019-05-20T02:43:47.045Z,85.92
2019-05-20T02:44:47.030Z,86.22
2019-05-20T02:45:47.017Z,86.13
2019-05-20T02:46:47.014Z,86.13
2019-05-20T02:47:47.018Z,86.33
2019-05-20T02:48:46.983Z,86.02
2019-05-20T02:49:46.974Z,85.92
2019-05-20T02:50:46.963Z,85.92
2019-05-20T02:51:46.953Z,86.22
2019-05-20T02:52:46.959Z,86.22
2019-05-20T02:53:46.927Z,86.22
2019-05-20T02:54:46.921Z,85.72
2019-05-20T02:55:46.919Z,86.22
2019-05-20T02:56:46.897Z,85.68
2019-05-20T02:57:46.997Z,86.22
2019-05-20T02:58:46.881Z,85.62
2019-05-20T02:59:46.862Z,86.19
2019-05-20T03:00:46.862Z,85.82
2019-05-20T03:01:46.838Z,86.13
2019-05-20T03:02:46.852Z,85.62
2019-05-20T03:03:46.817Z,85.58
2019-05-20T03:04:46.806Z,85.58
2019-05-20T03:05:46.794Z,85.88
2019-05-20T03:06:46.782Z,85.58
2019-05-20T03:07:46.814Z,85.88
2019-05-20T03:08:46.818Z,85.88
2019-05-20T03:09:46.754Z,86.02
2019-05-20T03:10:46.749Z,86.02
2019-05-20T03:11:46.729Z,86.39
2019-05-20T03:12:46.717Z,85.98
2019-05-20T03:13:46.724Z,85.58
2019-05-20T03:14:46.698Z,85.98
2019-05-20T03:15:46.686Z,85.68
2019-05-20T03:16:46.677Z,85.78
2019-05-20T03:17:46.729Z,85.68
2019-05-20T03:18:46.671Z,85.68
2019-05-20T03:19:46.724Z,85.78
2019-05-20T03:20:46.637Z,85.27
2019-05-20T03:21:46.622Z,84.97
2019-05-20T03:22:46.610Z,85.98
2019-05-20T03:23:46.614Z,85.98
2019-05-20T03:24:46.591Z,86.19
2019-05-20T03:25:46.576Z,85.58
2019-05-20T03:26:46.601Z,85.68
2019-05-20T03:27:46.563Z,85.58
2019-05-20T03:28:46.568Z,85.62
2019-05-20T03:29:46.531Z,85.92
2019-05-20T03:30:46.520Z,85.78
2019-05-20T03:31:46.510Z,85.68
2019-05-20T03:32:46.501Z,85.88
2019-05-20T03:33:46.542Z,85.58
2019-05-20T03:34:58.044Z,86.29
2019-05-20T03:35:46.469Z,85.47
2019-05-20T03:36:46.461Z,85.82
2019-05-20T03:37:46.465Z,85.88
2019-05-20T03:38:46.450Z,85.78
2019-05-20T03:39:46.426Z,85.98
2019-05-20T03:40:46.500Z,85.62
2019-05-20T03:41:46.400Z,86.22
2019-05-20T03:42:46.390Z,85.31
2019-05-20T03:43:46.395Z,85.62
2019-05-20T03:44:46.417Z,85.98
2019-05-20T03:45:46.355Z,86.39
2019-05-20T03:46:46.342Z,86.29
2019-05-20T03:47:46.425Z,85.82
2019-05-20T03:48:46.339Z,85.72
2019-05-20T03:49:46.315Z,85.62
2019-05-20T03:50:46.301Z,85.98
2019-05-20T03:51:46.298Z,86.08
2019-05-20T03:52:46.277Z,86.43
2019-05-20T03:53:46.314Z,86.43
2019-05-20T03:54:46.261Z,85.52
2019-05-20T03:55:46.246Z,85.92
2019-05-20T03:56:46.233Z,86.02
2019-05-20T03:57:46.223Z,86.22
2019-05-20T03:58:46.230Z,86.02
2019-05-20T03:59:46.210Z,85.92
2019-05-20T04:00:46.193Z,86.22
2019-05-20T04:01:46.182Z,86.53
2019-05-20T04:02:46.171Z,86.02
2019-05-20T04:03:46.182Z,86.33
2019-05-20T04:05:00.930Z,86.13
2019-05-20T04:05:46.146Z,86.22
2019-05-20T04:06:46.127Z,85.72
2019-05-20T04:07:46.119Z,86.02
2019-05-20T04:08:46.117Z,86.63
2019-05-20T04:09:46.092Z,86.53
2019-05-20T04:10:46.083Z,86.83
2019-05-20T04:11:46.177Z,86.94
2019-05-20T04:12:46.063Z,87.24
2019-05-20T04:13:46.068Z,86.74
2019-05-20T04:14:46.037Z,86.33
2019-05-20T04:15:46.030Z,86.74
2019-05-20T04:16:46.013Z,86.94
2019-05-20T04:17:46.001Z,87.24
2019-05-20T04:18:46.018Z,86.83
2019-05-20T04:19:45.984Z,86.22
2019-05-20T04:20:45.996Z,86.94
2019-05-20T04:21:45.961Z,86.83
2019-05-20T04:22:45.951Z,86.63
2019-05-20T04:23:45.968Z,86.74
2019-05-20T04:24:45.927Z,87.04
2019-05-20T04:25:45.930Z,87.04
2019-05-20T04:26:45.911Z,86.63
2019-05-20T04:27:45.891Z,87.34
2019-05-20T04:28:45.903Z,86.74
2019-05-20T04:29:45.880Z,86.94
2019-05-20T04:30:45.867Z,87.14
2019-05-20T04:31:45.849Z,87.34
2019-05-20T04:32:45.835Z,86.74
2019-05-20T04:33:45.840Z,87.14
2019-05-20T04:34:45.815Z,86.83
2019-05-20T04:35:49.524Z,87.24
2019-05-20T04:36:45.803Z,87.34
2019-05-20T04:37:45.790Z,87.00
2019-05-20T04:38:45.920Z,86.83
2019-05-20T04:39:45.760Z,86.94
2019-05-20T04:40:45.751Z,86.22
2019-05-20T04:41:45.746Z,86.19
2019-05-20T04:42:45.786Z,86.13
2019-05-20T04:43:45.800Z,86.90
2019-05-20T04:44:45.703Z,86.90
2019-05-20T04:45:45.692Z,86.02
2019-05-20T04:46:45.685Z,85.88
2019-05-20T04:47:45.671Z,85.78
2019-05-20T04:48:45.678Z,85.98
2019-05-20T04:49:45.651Z,85.98
2019-05-20T04:50:45.639Z,85.98
2019-05-20T04:51:45.626Z,85.68
2019-05-20T04:52:45.618Z,86.08
2019-05-20T04:53:45.626Z,85.78
2019-05-20T04:54:45.592Z,85.98
2019-05-20T04:55:45.589Z,85.68
2019-05-20T04:56:45.577Z,85.88
2019-05-20T04:57:45.569Z,85.98
2019-05-20T04:58:45.610Z,85.78
2019-05-20T04:59:45.538Z,85.98
2019-05-20T05:00:45.531Z,85.98
2019-05-20T05:01:45.515Z,86.08
2019-05-20T05:02:45.504Z,86.15
2019-05-20T05:03:45.512Z,86.25
2019-05-20T05:04:45.487Z,85.84
2019-05-20T05:05:45.472Z,85.88
2019-05-20T05:06:45.465Z,86.19
2019-05-20T05:07:45.452Z,86.25
2019-05-20T05:08:45.490Z,85.94
2019-05-20T05:09:45.426Z,85.78
2019-05-20T05:10:45.669Z,86.29
2019-05-20T05:11:45.601Z,85.98
2019-05-20T05:12:45.393Z,85.94
2019-05-20T05:13:45.399Z,86.25
2019-05-20T05:14:45.372Z,85.53
2019-05-20T05:15:45.361Z,85.84
2019-05-20T05:16:45.354Z,86.15
2019-05-20T05:17:45.345Z,86.15
2019-05-20T05:18:45.348Z,86.05
2019-05-20T05:19:45.320Z,86.15
2019-05-20T05:20:45.304Z,85.53
2019-05-20T05:21:45.299Z,85.53
2019-05-20T05:22:45.283Z,85.53
2019-05-20T05:23:58.361Z,85.74
2019-05-20T05:24:45.265Z,85.64
2019-05-20T05:25:45.257Z,85.74
2019-05-20T05:26:47.816Z,85.94
2019-05-20T05:27:45.229Z,85.84
2019-05-20T05:28:45.239Z,85.53
2019-05-20T05:29:45.463Z,85.53
2019-05-20T05:30:45.195Z,85.74
2019-05-20T05:31:45.187Z,86.15
2019-05-20T05:32:45.175Z,85.64
2019-05-20T05:33:45.181Z,85.64
2019-05-20T05:34:45.229Z,85.94
2019-05-20T05:35:53.205Z,85.94
2019-05-20T05:36:46.130Z,85.53
2019-05-20T05:37:45.131Z,85.94
2019-05-20T05:38:45.578Z,85.94
2019-05-20T05:39:45.108Z,85.94
2019-05-20T05:40:45.086Z,85.64
2019-05-20T05:41:45.074Z,86.15
2019-05-20T05:42:45.091Z,85.94
2019-05-20T05:43:45.054Z,86.96
2019-05-20T05:44:45.062Z,85.94
2019-05-20T05:45:45.032Z,85.74
2019-05-20T05:46:45.024Z,86.25
2019-05-20T05:47:45.011Z,86.35
2019-05-20T05:48:45.004Z,85.94
2019-05-20T05:49:45.006Z,86.05
2019-05-20T05:50:44.978Z,85.94
2019-05-20T05:51:44.968Z,85.74
2019-05-20T05:52:44.955Z,85.94
2019-05-20T05:53:45.008Z,85.94
2019-05-20T05:54:44.949Z,85.53
2019-05-20T05:55:44.930Z,85.53
2019-05-20T05:56:44.909Z,85.60
2019-05-20T05:57:44.897Z,85.74
2019-05-20T05:58:44.887Z,86.35
2019-05-20T05:59:45.060Z,86.25
2019-05-20T06:00:44.865Z,85.70
2019-05-20T06:01:44.876Z,86.10
2019-05-20T06:02:44.904Z,85.33
2019-05-20T06:03:44.834Z,86.15
2019-05-20T06:04:44.838Z,86.05
2019-05-20T06:05:44.810Z,86.15
2019-05-20T06:06:44.845Z,85.53
2019-05-20T06:07:44.789Z,86.10
2019-05-20T06:08:44.778Z,86.10
2019-05-20T06:09:44.786Z,86.21
2019-05-20T06:10:44.757Z,86.45
2019-05-20T06:11:44.743Z,86.05
2019-05-20T06:12:44.735Z,85.53
2019-05-20T06:13:44.765Z,86.10
2019-05-20T06:14:44.802Z,85.50
2019-05-20T06:15:44.700Z,85.90
2019-05-20T06:16:44.688Z,85.80
2019-05-20T06:17:44.684Z,85.90
2019-05-20T06:18:44.673Z,85.70
2019-05-20T06:19:44.682Z,85.90
2019-05-20T06:20:44.643Z,85.90
2019-05-20T06:21:44.645Z,85.80
2019-05-20T06:22:44.626Z,85.70
2019-05-20T06:23:44.610Z,85.50
2019-05-20T06:24:44.626Z,85.90
2019-05-20T06:25:44.590Z,85.50
2019-05-20T06:26:44.581Z,85.60
2019-05-20T06:27:44.566Z,85.09
2019-05-20T06:28:44.559Z,85.60
2019-05-20T06:29:44.567Z,85.19
2019-05-20T06:30:44.542Z,85.19
2019-05-20T06:31:44.529Z,85.19
2019-05-20T06:32:44.531Z,85.09
2019-05-20T06:33:44.562Z,84.78
2019-05-20T06:34:44.531Z,85.09
2019-05-20T06:35:44.636Z,85.09
2019-05-20T06:36:44.472Z,85.30
2019-05-20T06:37:44.462Z,85.30
2019-05-20T06:38:44.445Z,85.09
2019-05-20T06:39:44.469Z,85.09
2019-05-20T06:40:44.432Z,85.19
2019-05-20T06:41:44.418Z,84.99
2019-05-20T06:42:44.404Z,84.89
2019-05-20T06:43:44.395Z,85.09
2019-05-20T06:44:52.529Z,85.39
2019-05-20T06:45:44.370Z,85.09
2019-05-20T06:46:44.356Z,85.19
2019-05-20T06:47:44.350Z,84.89
2019-05-20T06:48:44.347Z,84.69
2019-05-20T06:49:44.348Z,85.60
2019-05-20T06:50:44.335Z,84.99
2019-05-20T06:51:44.302Z,85.19
2019-05-20T06:52:44.301Z,84.99
2019-05-20T06:53:44.281Z,85.19
2019-05-20T06:54:44.313Z,85.09
2019-05-20T06:55:44.261Z,84.89
2019-05-20T06:56:44.330Z,85.09
2019-05-20T06:57:44.250Z,84.99
2019-05-20T06:58:44.293Z,85.50
2019-05-20T06:59:44.237Z,85.39
2019-05-20T07:00:44.212Z,84.78
2019-05-20T07:01:44.194Z,84.99
2019-05-20T07:02:44.184Z,85.09
2019-05-20T07:03:44.172Z,84.58
2019-05-20T07:04:44.180Z,85.19
2019-05-20T07:05:44.262Z,84.99
2019-05-20T07:06:47.072Z,85.09
2019-05-20T07:07:44.127Z,85.90
2019-05-20T07:08:44.113Z,85.39
2019-05-20T07:09:44.120Z,85.60
2019-05-20T07:10:44.097Z,85.30
2019-05-20T07:11:52.329Z,85.90
2019-05-20T07:12:44.082Z,85.90
2019-05-20T07:13:44.069Z,85.90
2019-05-20T07:14:44.114Z,85.90
2019-05-20T07:15:44.036Z,84.89
2019-05-20T07:16:44.094Z,84.99
2019-05-20T07:17:44.016Z,84.95
2019-05-20T07:18:44.005Z,85.60
2019-05-20T07:19:44.012Z,85.09
2019-05-20T07:20:44.046Z,85.60
2019-05-20T07:21:43.971Z,84.58
2019-05-20T07:22:55.339Z,84.99
2019-05-20T07:23:44.955Z,85.19
2019-05-20T07:24:43.960Z,85.30
2019-05-20T07:25:43.930Z,84.78
2019-05-20T07:26:43.999Z,85.80
2019-05-20T07:27:43.911Z,84.78
2019-05-20T07:28:44.021Z,85.39
2019-05-20T07:29:43.904Z,85.15
2019-05-20T07:30:43.892Z,85.05
2019-05-20T07:31:43.873Z,84.44
2019-05-20T07:32:43.861Z,85.19
2019-05-20T07:33:43.856Z,84.55
2019-05-20T07:34:43.845Z,84.95
2019-05-20T07:35:43.815Z,85.05
2019-05-20T07:36:43.820Z,84.85
2019-05-20T07:37:43.795Z,84.95
2019-05-20T07:38:43.788Z,84.95
2019-05-20T07:39:43.790Z,84.95
2019-05-20T07:40:43.762Z,85.15
2019-05-20T07:41:43.751Z,85.15
2019-05-20T07:42:43.910Z,84.95
2019-05-20T07:43:43.731Z,85.05
2019-05-20T07:44:43.734Z,84.85
2019-05-20T07:45:43.706Z,84.85
2019-05-20T07:46:43.701Z,85.66
2019-05-20T07:47:43.690Z,84.64
2019-05-20T07:48:43.690Z,85.86
2019-05-20T07:49:43.683Z,85.15
2019-05-20T07:50:43.738Z,84.85
2019-05-20T07:51:43.725Z,84.95
2019-05-20T07:52:43.630Z,84.70
2019-05-20T07:53:43.681Z,85.01
2019-05-20T07:54:43.625Z,84.95
2019-05-20T07:55:43.622Z,85.15
2019-05-20T07:56:43.584Z,85.11
2019-05-20T07:57:43.577Z,85.01
2019-05-20T07:58:43.561Z,85.15
2019-05-20T07:59:43.579Z,84.91
2019-05-20T08:00:43.540Z,84.91
2019-05-20T08:01:43.532Z,85.15
2019-05-20T08:02:43.520Z,85.05
2019-05-20T08:03:43.510Z,85.15
2019-05-20T08:04:43.527Z,85.01
2019-05-20T08:05:43.507Z,84.85
2019-05-20T08:06:43.474Z,84.81
2019-05-20T08:07:51.945Z,84.41
2019-05-20T08:08:43.549Z,85.11
2019-05-20T08:09:46.304Z,85.05
2019-05-20T08:10:43.447Z,84.50
2019-05-20T08:11:43.421Z,85.01
2019-05-20T08:12:43.414Z,85.11
2019-05-20T08:13:43.429Z,85.11
2019-05-20T08:14:43.396Z,85.01
2019-05-20T08:15:43.393Z,85.05
2019-05-20T08:16:43.371Z,85.05
2019-05-20T08:17:43.357Z,85.21
2019-05-20T08:18:43.353Z,84.50
2019-05-20T08:19:43.329Z,85.72
2019-05-20T08:20:43.347Z,85.86
2019-05-20T08:21:43.327Z,85.15
2019-05-20T08:22:43.296Z,85.01
2019-05-20T08:23:43.304Z,85.82
2019-05-20T08:24:43.281Z,84.95
2019-05-20T08:25:43.344Z,84.70
2019-05-20T08:26:43.404Z,85.15
2019-05-20T08:27:43.246Z,84.91
2019-05-20T08:28:43.238Z,85.86
2019-05-20T08:29:43.220Z,85.66
2019-05-20T08:30:43.228Z,85.01
2019-05-20T08:31:43.197Z,85.56
2019-05-20T08:32:43.186Z,85.86
2019-05-20T08:33:43.176Z,86.02
2019-05-20T08:34:43.171Z,85.86
2019-05-20T08:35:43.177Z,85.66
2019-05-20T08:36:43.145Z,86.07
2019-05-20T08:37:45.738Z,85.82
2019-05-20T08:38:43.124Z,85.82
2019-05-20T08:39:43.112Z,85.62
2019-05-20T08:40:43.118Z,85.62
2019-05-20T08:41:43.134Z,85.21
2019-05-20T08:42:43.079Z,84.81
2019-05-20T08:43:43.189Z,85.11
2019-05-20T08:44:43.057Z,85.01
2019-05-20T08:45:43.095Z,85.52
2019-05-20T08:46:43.036Z,84.67
2019-05-20T08:47:43.022Z,84.97
2019-05-20T08:48:43.009Z,84.87
2019-05-20T08:49:43.645Z,85.38
2019-05-20T08:50:43.009Z,84.47
2019-05-20T08:51:42.980Z,84.67
2019-05-20T08:52:42.969Z,84.67
2019-05-20T08:53:42.957Z,84.67
2019-05-20T08:54:42.948Z,84.06
2019-05-20T08:55:43.003Z,84.27
2019-05-20T08:56:42.924Z,83.96
2019-05-20T08:57:42.913Z,83.96
2019-05-20T08:58:42.902Z,84.06
2019-05-20T08:59:42.890Z,84.06
2019-05-20T09:00:42.900Z,83.96
2019-05-20T09:01:42.868Z,83.86
2019-05-20T09:02:42.856Z,84.06
2019-05-20T09:03:42.850Z,84.27
2019-05-20T09:04:42.835Z,83.76
2019-05-20T09:05:42.840Z,83.86
2019-05-20T09:06:42.821Z,83.45
2019-05-20T09:07:42.819Z,83.55
2019-05-20T09:08:42.794Z,83.35
2019-05-20T09:09:42.783Z,83.15
2019-05-20T09:10:42.788Z,83.35
2019-05-20T09:11:42.766Z,82.84
2019-05-20T09:12:42.748Z,83.45
2019-05-20T09:13:42.737Z,83.35
2019-05-20T09:14:42.732Z,83.51
2019-05-20T09:15:45.364Z,83.35
2019-05-20T09:16:42.768Z,83.35
2019-05-20T09:17:42.697Z,83.45
2019-05-20T09:18:42.694Z,83.35
2019-05-20T09:19:46.706Z,82.84
2019-05-20T09:20:42.815Z,83.45
2019-05-20T09:21:42.649Z,83.41
2019-05-20T09:22:42.637Z,83.65
2019-05-20T09:23:42.626Z,83.51
2019-05-20T09:24:42.813Z,83.72
2019-05-20T09:25:42.630Z,83.41
2019-05-20T09:26:42.604Z,83.15
2019-05-20T09:27:42.593Z,83.45
2019-05-20T09:28:42.676Z,83.55
2019-05-20T09:29:42.558Z,83.45
2019-05-20T09:30:42.569Z,83.55
2019-05-20T09:31:42.543Z,83.55
2019-05-20T09:32:43.170Z,83.35
2019-05-20T09:33:42.513Z,83.55
2019-05-20T09:34:42.505Z,83.35
2019-05-20T09:35:42.856Z,83.96
2019-05-20T09:36:42.507Z,83.15
2019-05-20T09:37:42.487Z,83.55
2019-05-20T09:38:42.460Z,83.04
2019-05-20T09:39:42.469Z,83.35
2019-05-20T09:40:42.455Z,83.45
2019-05-20T09:41:42.425Z,83.55
2019-05-20T09:42:42.421Z,83.55
2019-05-20T09:43:42.408Z,83.35
2019-05-20T09:44:42.469Z,83.45
2019-05-20T09:45:42.407Z,83.15
2019-05-20T09:46:42.370Z,83.15
2019-05-20T09:47:42.361Z,83.55
2019-05-20T09:48:42.351Z,83.45
2019-05-20T09:49:42.341Z,83.76
2019-05-20T09:50:42.325Z,83.65
2019-05-20T09:51:42.335Z,83.55
2019-05-20T09:52:42.305Z,83.65
2019-05-20T09:53:42.297Z,83.76
2019-05-20T09:54:45.423Z,84.36
2019-05-20T09:55:42.297Z,83.76
2019-05-20T09:56:42.286Z,83.55
2019-05-20T09:57:42.250Z,83.96
2019-05-20T09:58:42.248Z,83.55
2019-05-20T09:59:43.801Z,83.15
2019-05-20T10:00:42.230Z,82.84
2019-05-20T10:01:42.271Z,83.25
2019-05-20T10:02:42.197Z,83.39
2019-05-20T10:03:42.182Z,82.95
2019-05-20T10:04:42.174Z,83.55
2019-05-20T10:05:42.163Z,83.76
2019-05-20T10:06:42.167Z,83.45
2019-05-20T10:07:42.211Z,83.15
2019-05-20T10:08:44.887Z,83.15
2019-05-20T10:09:42.118Z,83.35
2019-05-20T10:10:42.110Z,83.65
2019-05-20T10:11:42.118Z,83.35
2019-05-20T10:12:46.614Z,83.45
2019-05-20T10:13:43.074Z,83.55
2019-05-20T10:14:42.061Z,83.55
2019-05-20T10:15:42.049Z,83.45
2019-05-20T10:16:42.070Z,83.55
2019-05-20T10:17:42.031Z,83.15
2019-05-20T10:18:42.027Z,83.65
2019-05-20T10:19:42.011Z,83.15
2019-05-20T10:20:41.994Z,83.55
2019-05-20T10:21:42.052Z,83.25
2019-05-20T10:22:41.971Z,83.76
2019-05-20T10:23:41.975Z,83.35
2019-05-20T10:24:41.949Z,83.45
2019-05-20T10:25:41.941Z,83.55
2019-05-20T10:26:41.947Z,83.65
2019-05-20T10:27:41.923Z,83.55
2019-05-20T10:28:46.498Z,83.55
2019-05-20T10:29:41.897Z,83.55
2019-05-20T10:30:41.947Z,83.55
2019-05-20T10:31:41.897Z,83.55
2019-05-20T10:32:41.862Z,83.45
2019-05-20T10:33:41.850Z,83.45
2019-05-20T10:34:41.839Z,83.49
2019-05-20T10:35:41.833Z,83.35
2019-05-20T10:36:41.837Z,82.84
2019-05-20T10:37:41.807Z,83.45
2019-05-20T10:38:57.927Z,83.15
2019-05-20T10:39:41.791Z,83.55
2019-05-20T10:40:41.786Z,83.45
2019-05-20T10:41:41.779Z,83.59
2019-05-20T10:42:41.758Z,83.55
2019-05-20T10:43:41.747Z,83.65
2019-05-20T10:44:42.147Z,83.35
2019-05-20T10:45:41.719Z,83.35
2019-05-20T10:46:41.728Z,83.35
2019-05-20T10:47:41.707Z,83.55
2019-05-20T10:48:41.685Z,83.55
2019-05-20T10:49:41.673Z,83.45
2019-05-20T10:50:41.739Z,83.25
2019-05-20T10:51:41.782Z,83.55
2019-05-20T10:52:41.644Z,83.55
2019-05-20T10:53:41.642Z,83.65
2019-05-20T10:54:41.622Z,83.04
2019-05-20T10:55:41.625Z,83.04
2019-05-20T10:56:41.720Z,82.84
2019-05-20T10:57:41.583Z,83.55
2019-05-20T10:58:41.576Z,83.25
2019-05-20T10:59:41.563Z,83.04
2019-05-20T11:01:00.223Z,83.04
2019-05-20T11:01:42.559Z,83.31
2019-05-20T11:02:41.528Z,83.45
2019-05-20T11:03:41.524Z,83.45
2019-05-20T11:04:41.515Z,83.41
2019-05-20T11:05:41.499Z,83.11
2019-05-20T11:06:41.536Z,83.51
2019-05-20T11:07:41.546Z,83.21
2019-05-20T11:08:41.466Z,83.61
2019-05-20T11:09:41.455Z,83.01
2019-05-20T11:10:41.443Z,83.21
2019-05-20T11:11:41.449Z,83.21
2019-05-20T11:12:41.427Z,83.51
2019-05-20T11:13:41.409Z,83.51
2019-05-20T11:14:41.411Z,82.81
2019-05-20T11:15:41.388Z,83.41
2019-05-20T11:16:41.394Z,83.21
2019-05-20T11:17:41.372Z,83.21
2019-05-20T11:18:41.352Z,83.31
2019-05-20T11:19:41.340Z,83.21
2019-05-20T11:20:41.333Z,83.01
2019-05-20T11:21:41.355Z,83.11
2019-05-20T11:22:41.308Z,82.95
2019-05-20T11:23:41.311Z,83.65
2019-05-20T11:24:41.303Z,83.25
2019-05-20T11:25:41.279Z,83.25
2019-05-20T11:26:41.284Z,83.15
2019-05-20T11:27:41.254Z,83.35
2019-05-20T11:28:41.250Z,83.55
2019-05-20T11:29:41.250Z,83.76
2019-05-20T11:30:41.220Z,83.25
2019-05-20T11:31:41.362Z,83.15
2019-05-20T11:32:41.237Z,83.45
2019-05-20T11:33:41.189Z,83.15
2019-05-20T11:34:41.180Z,83.55
2019-05-20T11:35:41.166Z,83.25
2019-05-20T11:36:41.204Z,83.25
2019-05-20T11:37:41.142Z,83.25
2019-05-20T11:38:41.138Z,83.25
2019-05-20T11:39:41.132Z,83.15
2019-05-20T11:40:41.114Z,83.55
2019-05-20T11:41:52.786Z,83.55
2019-05-20T11:42:42.088Z,83.35
2019-05-20T11:43:41.125Z,83.15
2019-05-20T11:44:41.080Z,83.25
2019-05-20T11:45:41.055Z,83.04
2019-05-20T11:46:41.068Z,83.21
2019-05-20T11:47:41.185Z,83.25
2019-05-20T11:48:41.024Z,83.11
2019-05-20T11:49:41.017Z,83.25
2019-05-20T11:50:41.002Z,83.04
2019-05-20T11:51:41.008Z,82.60
2019-05-20T11:52:40.998Z,83.11
2019-05-20T11:53:40.964Z,83.01
2019-05-20T11:54:40.955Z,83.25
2019-05-20T11:55:40.974Z,83.96
2019-05-20T11:56:40.935Z,82.70
2019-05-20T11:57:40.942Z,83.11
2019-05-20T11:58:40.912Z,83.11
2019-05-20T11:59:40.901Z,82.95
2019-05-20T12:00:40.893Z,83.35
2019-05-20T12:01:40.881Z,82.95
2019-05-20T12:02:40.884Z,82.90
2019-05-20T12:03:40.855Z,83.04
2019-05-20T12:04:40.845Z,82.75
2019-05-20T12:05:40.844Z,82.75
2019-05-20T12:06:40.825Z,83.31
2019-05-20T12:07:40.831Z,83.25
2019-05-20T12:08:40.809Z,83.35
2019-05-20T12:09:49.648Z,83.35
2019-05-20T12:10:40.779Z,83.45
2019-05-20T12:11:40.773Z,83.15
2019-05-20T12:12:40.775Z,82.44
2019-05-20T12:13:40.755Z,82.84
2019-05-20T12:14:40.744Z,83.04
2019-05-20T12:15:40.724Z,82.54
2019-05-20T12:16:40.716Z,82.84
2019-05-20T12:17:40.721Z,82.34
2019-05-20T12:18:40.695Z,82.70
2019-05-20T12:19:40.677Z,83.25
2019-05-20T12:20:40.666Z,82.54
2019-05-20T12:21:40.656Z,82.64
2019-05-20T12:22:40.665Z,82.81
2019-05-20T12:23:40.634Z,82.70
2019-05-20T12:24:40.624Z,82.84
2019-05-20T12:25:40.613Z,82.75
2019-05-20T12:26:40.602Z,81.79
2019-05-20T12:27:40.612Z,82.30
2019-05-20T12:28:40.585Z,82.44
2019-05-20T12:29:40.567Z,82.34
2019-05-20T12:30:40.567Z,82.24
2019-05-20T12:31:40.547Z,82.30
